Time;durP1;ratioP1;P1;durP2;ratioP2;P2;SDS_P1;SDS_P2;PMS_P1;PMS_P2;Temp;Humidity;BMP_temperature;BMP_pressure;BME280_temperature;BME280_humidity;BME280_pressure;Samples;Min_cycle;Max_cycle;Signal;HPM_P1;HPM_P2
2021/09/19 00:00:53;;;;;;;351.90;330.27;;;16.50;99.90;;;;;;5058028;28;20167;-88
2021/09/19 00:03:18;;;;;;;363.47;341.57;;;16.40;99.90;;;;;;5039419;28;20916;-88
2021/09/19 00:05:44;;;;;;;382.40;359.43;;;16.40;99.90;;;;;;5058338;28;20184;-88
2021/09/19 00:08:11;;;;;;;363.73;342.07;;;16.40;99.90;;;;;;5040165;28;20198;-88
2021/09/19 00:10:37;;;;;;;376.73;354.10;;;16.40;99.90;;;;;;5040665;28;20187;-89
2021/09/19 00:13:03;;;;;;;376.47;353.77;;;16.30;99.90;;;;;;5058982;28;20863;-89
2021/09/19 00:15:29;;;;;;;387.70;363.93;;;16.20;99.90;;;;;;5040860;28;20172;-88
2021/09/19 00:17:54;;;;;;;396.33;372.67;;;16.10;99.90;;;;;;5039923;28;20196;-88
2021/09/19 00:20:20;;;;;;;366.13;343.63;;;16.00;99.90;;;;;;5057980;28;20420;-88
2021/09/19 00:22:46;;;;;;;382.40;359.40;;;16.00;99.90;;;;;;5057174;28;20407;-89
2021/09/19 00:25:13;;;;;;;388.10;365.10;;;16.00;99.90;;;;;;5039452;28;20473;-88
2021/09/19 00:27:39;;;;;;;386.37;363.20;;;16.00;99.90;;;;;;5056506;28;20662;-88
2021/09/19 00:30:06;;;;;;;353.83;332.20;;;15.90;99.90;;;;;;5038743;28;20420;-88
2021/09/19 00:32:32;;;;;;;374.67;352.50;;;16.00;99.90;;;;;;5038208;28;20452;-88
2021/09/19 00:34:57;;;;;;;356.53;334.93;;;15.90;99.90;;;;;;5038896;28;20419;-88
2021/09/19 00:37:23;;;;;;;371.53;349.67;;;15.90;99.90;;;;;;5039057;28;20192;-88
2021/09/19 00:39:49;;;;;;;351.27;330.03;;;15.90;99.90;;;;;;5056611;28;20167;-88
2021/09/19 00:42:14;;;;;;;379.33;356.93;;;16.00;99.90;;;;;;5056898;28;20173;-88
2021/09/19 00:44:40;;;;;;;373.73;352.03;;;15.90;99.90;;;;;;5057271;28;20170;-88
2021/09/19 00:47:06;;;;;;;392.70;369.20;;;16.00;99.90;;;;;;5056555;28;20206;-88
2021/09/19 00:49:31;;;;;;;373.57;352.00;;;16.00;99.90;;;;;;5038944;28;20527;-88
2021/09/19 00:51:57;;;;;;;365.00;343.80;;;15.90;99.90;;;;;;5055942;28;20233;-88
2021/09/19 00:54:24;;;;;;;374.67;353.03;;;15.90;99.90;;;;;;5056146;28;20224;-88
2021/09/19 00:56:56;;;;;;;396.20;373.77;;;15.90;99.90;;;;;;5056234;28;20413;-88
2021/09/19 00:59:23;;;;;;;360.17;339.33;;;15.90;99.90;;;;;;5038201;28;20434;-88
2021/09/19 01:01:50;;;;;;;372.10;351.00;;;15.90;99.90;;;;;;5057247;28;20926;-88
2021/09/19 01:04:16;;;;;;;325.87;306.00;;;15.90;99.90;;;;;;5057514;28;20387;-88
2021/09/19 01:06:42;;;;;;;354.73;334.00;;;16.10;99.90;;;;;;5057116;28;20428;-88
2021/09/19 01:09:08;;;;;;;360.50;339.13;;;15.90;99.90;;;;;;5056067;28;20773;-88
2021/09/19 01:11:34;;;;;;;368.97;347.07;;;15.80;99.90;;;;;;5056608;28;20455;-88
2021/09/19 01:14:00;;;;;;;380.93;359.13;;;15.70;99.90;;;;;;5056636;28;20165;-88
2021/09/19 01:16:27;;;;;;;364.27;342.87;;;15.80;99.90;;;;;;5057272;28;20953;-88
2021/09/19 01:18:54;;;;;;;341.13;321.17;;;15.70;99.90;;;;;;5056025;28;20416;-88
2021/09/19 01:21:23;;;;;;;376.20;354.40;;;15.60;99.90;;;;;;5056489;28;20409;-88
2021/09/19 01:23:59;;;;;;;342.70;322.43;;;15.60;99.90;;;;;;5056492;28;20402;-88
2021/09/19 01:26:26;;;;;;;372.53;351.10;;;15.50;99.90;;;;;;5038439;28;20428;-88
2021/09/19 01:28:52;;;;;;;351.17;330.87;;;15.50;99.90;;;;;;5056456;28;20432;-88
2021/09/19 01:31:18;;;;;;;374.53;353.20;;;15.60;99.90;;;;;;5056289;28;20449;-88
2021/09/19 01:33:44;;;;;;;321.53;302.67;;;15.60;99.90;;;;;;5056116;28;20467;-88
2021/09/19 01:36:11;;;;;;;363.37;342.17;;;15.60;99.90;;;;;;5056820;28;20416;-88
2021/09/19 01:38:37;;;;;;;365.87;344.77;;;15.60;99.90;;;;;;5038046;28;20194;-89
2021/09/19 01:41:02;;;;;;;329.90;309.50;;;15.50;99.90;;;;;;5055423;28;20774;-88
2021/09/19 01:43:28;;;;;;;356.97;336.23;;;15.60;99.90;;;;;;5055202;28;20492;-88
2021/09/19 01:45:58;;;;;;;335.40;315.50;;;15.60;99.90;;;;;;5037205;28;20162;-88
2021/09/19 01:48:23;;;;;;;344.80;324.93;;;15.60;99.90;;;;;;5036949;28;20410;-88
2021/09/19 01:50:49;;;;;;;380.70;359.37;;;15.70;99.90;;;;;;5038172;28;20849;-88
2021/09/19 01:53:15;;;;;;;342.03;322.10;;;15.70;99.90;;;;;;5055753;28;20548;-88
2021/09/19 01:55:40;;;;;;;350.17;329.83;;;15.60;99.90;;;;;;5145646;22;20223;-87
2021/09/19 01:58:06;;;;;;;344.10;323.83;;;15.60;99.90;;;;;;5064869;28;20238;-87
2021/09/19 02:00:32;;;;;;;314.90;295.40;;;15.40;99.90;;;;;;5064597;28;20165;-87
2021/09/19 02:02:57;;;;;;;288.03;269.47;;;15.30;99.90;;;;;;5065657;28;20256;-86
2021/09/19 02:05:23;;;;;;;329.13;309.87;;;15.30;99.90;;;;;;5064932;28;20542;-87
2021/09/19 02:07:52;;;;;;;330.80;311.27;;;15.50;99.90;;;;;;5064179;28;20197;-87
2021/09/19 02:10:18;;;;;;;326.73;306.70;;;15.50;99.90;;;;;;5046471;28;20252;-87
2021/09/19 02:12:44;;;;;;;332.80;313.17;;;15.60;99.90;;;;;;5064068;28;20500;-87
2021/09/19 02:15:11;;;;;;;361.23;340.77;;;15.70;99.90;;;;;;5065265;28;20426;-87
2021/09/19 02:17:37;;;;;;;329.40;310.23;;;15.80;99.90;;;;;;5065122;28;20414;-87
2021/09/19 02:20:08;;;;;;;348.87;328.50;;;15.80;99.90;;;;;;5063958;28;20407;-87
2021/09/19 02:22:34;;;;;;;382.70;361.03;;;15.80;99.90;;;;;;5064525;28;20149;-87
2021/09/19 02:24:59;;;;;;;354.93;334.70;;;15.80;99.90;;;;;;5065375;28;20489;-87
2021/09/19 02:27:25;;;;;;;330.13;310.87;;;15.90;99.90;;;;;;5064548;28;20677;-87
2021/09/19 02:29:51;;;;;;;368.97;348.03;;;15.90;99.90;;;;;;5043389;28;20182;-87
2021/09/19 02:32:17;;;;;;;330.70;311.60;;;15.90;99.90;;;;;;5064277;28;20194;-87
2021/09/19 02:34:43;;;;;;;339.83;319.87;;;16.00;99.90;;;;;;5062480;28;20187;-87
2021/09/19 02:37:08;;;;;;;334.37;314.40;;;15.90;99.90;;;;;;5043653;28;20812;-87
2021/09/19 02:39:34;;;;;;;343.07;322.87;;;15.70;99.90;;;;;;5063688;28;20406;-87
2021/09/19 02:42:00;;;;;;;340.57;320.73;;;15.70;99.90;;;;;;5065268;28;20229;-87
2021/09/19 02:44:26;;;;;;;368.10;347.20;;;15.50;99.90;;;;;;5065641;28;20421;-87
2021/09/19 02:46:52;;;;;;;367.30;346.77;;;15.50;99.90;;;;;;5064491;28;20196;-87
2021/09/19 02:49:17;;;;;;;361.33;340.87;;;15.40;99.90;;;;;;5047262;28;20205;-87
2021/09/19 02:51:43;;;;;;;347.30;327.37;;;15.30;99.90;;;;;;5047517;28;20483;-87
2021/09/19 02:54:09;;;;;;;354.57;334.47;;;15.40;99.90;;;;;;5043891;28;20169;-87
2021/09/19 02:56:35;;;;;;;359.30;339.10;;;15.30;99.90;;;;;;5046655;28;20451;-87
2021/09/19 02:59:00;;;;;;;348.03;327.63;;;15.20;99.90;;;;;;5065059;28;20175;-87
2021/09/19 03:01:27;;;;;;;348.70;328.73;;;15.20;99.90;;;;;;5064207;28;20218;-86
2021/09/19 03:03:52;;;;;;;343.50;322.70;;;15.20;99.90;;;;;;5066191;28;20256;-87
2021/09/19 03:06:21;;;;;;;307.73;289.20;;;15.00;99.90;;;;;;5064040;28;20419;-88
2021/09/19 03:08:50;;;;;;;311.57;292.87;;;15.10;99.90;;;;;;5044629;28;20173;-87
2021/09/19 03:11:16;;;;;;;294.17;276.17;;;15.10;99.90;;;;;;5063029;28;20465;-87
2021/09/19 03:13:45;;;;;;;344.17;324.57;;;15.00;99.90;;;;;;5043349;28;20470;-87
2021/09/19 03:16:14;;;;;;;309.20;290.77;;;15.00;99.90;;;;;;5044659;28;20410;-87
2021/09/19 03:18:40;;;;;;;271.63;254.50;;;14.90;99.90;;;;;;5042309;28;20476;-87
2021/09/19 03:21:05;;;;;;;329.33;309.60;;;15.00;99.90;;;;;;5048513;28;20438;-87
2021/09/19 03:23:31;;;;;;;311.90;293.43;;;15.00;99.90;;;;;;5068081;28;20314;-87
2021/09/19 03:25:57;;;;;;;256.30;239.20;;;15.10;99.90;;;;;;5069318;28;20180;-86
2021/09/19 03:28:22;;;;;;;209.67;193.40;;;15.20;99.90;;;;;;5065740;28;20176;-87
2021/09/19 03:30:48;;;;;;;386.17;364.90;;;15.20;99.90;;;;;;5050225;28;20169;-87
2021/09/19 03:33:14;;;;;;;373.00;352.10;;;15.20;99.90;;;;;;5047512;28;20192;-87
2021/09/19 03:35:39;;;;;;;368.83;348.37;;;15.30;99.90;;;;;;5067356;28;20184;-87
2021/09/19 03:38:05;;;;;;;313.07;294.63;;;15.30;99.90;;;;;;5049797;28;20201;-87
2021/09/19 03:40:31;;;;;;;279.27;261.33;;;15.40;99.90;;;;;;5067502;28;20174;-86
2021/09/19 03:42:56;;;;;;;406.77;384.87;;;15.40;99.90;;;;;;5066217;28;20169;-86
2021/09/19 03:45:29;;;;;;;396.33;374.73;;;15.50;99.90;;;;;;5066357;28;20169;-86
2021/09/19 03:47:56;;;;;;;371.20;350.63;;;15.50;99.90;;;;;;5065897;28;20208;-86
2021/09/19 03:50:21;;;;;;;372.20;351.23;;;15.50;99.90;;;;;;5048803;28;20787;-86
2021/09/19 03:52:47;;;;;;;375.30;354.23;;;15.40;99.90;;;;;;5046836;28;20458;-86
2021/09/19 03:55:13;;;;;;;387.67;366.30;;;15.30;99.90;;;;;;5064556;28;20176;-86
2021/09/19 03:57:39;;;;;;;386.27;364.80;;;15.30;99.90;;;;;;5047121;28;20219;-87
2021/09/19 04:00:05;;;;;;;373.37;352.33;;;15.10;99.90;;;;;;5048721;28;20170;-87
2021/09/19 04:02:32;;;;;;;371.67;350.93;;;15.10;99.90;;;;;;5066345;28;20952;-87
2021/09/19 04:04:58;;;;;;;382.40;360.83;;;15.20;99.90;;;;;;5047827;28;20464;-87
2021/09/19 04:07:24;;;;;;;386.93;365.77;;;15.10;99.90;;;;;;5048590;28;20439;-87
2021/09/19 04:09:49;;;;;;;359.07;338.93;;;15.00;99.90;;;;;;5065183;28;20169;-87
2021/09/19 04:12:15;;;;;;;375.70;354.97;;;14.90;99.90;;;;;;5066085;28;20244;-87
2021/09/19 04:14:41;;;;;;;382.77;361.93;;;15.00;99.90;;;;;;5046644;28;20162;-86
2021/09/19 04:17:06;;;;;;;369.80;349.27;;;15.00;99.90;;;;;;5047058;28;20225;-86
2021/09/19 04:19:32;;;;;;;394.07;372.37;;;15.10;99.90;;;;;;5047741;28;20166;-86
2021/09/19 04:21:58;;;;;;;352.53;332.63;;;15.10;99.90;;;;;;5047829;28;20176;-87
2021/09/19 04:24:23;;;;;;;392.50;370.93;;;15.10;99.90;;;;;;5046527;28;20215;-87
2021/09/19 04:26:49;;;;;;;340.67;321.03;;;14.90;99.90;;;;;;5063884;28;20189;-87
2021/09/19 04:29:15;;;;;;;368.33;347.67;;;14.70;99.90;;;;;;5064397;28;20176;-87
2021/09/19 04:31:40;;;;;;;367.33;346.30;;;14.70;99.90;;;;;;5065850;28;20224;-87
2021/09/19 04:34:06;;;;;;;310.63;292.07;;;14.70;99.90;;;;;;5066243;28;20271;-87
2021/09/19 04:36:32;;;;;;;368.63;348.03;;;14.80;99.90;;;;;;5065795;28;20230;-87
2021/09/19 04:38:57;;;;;;;332.00;312.37;;;14.70;99.90;;;;;;5065979;28;20161;-87
2021/09/19 04:41:23;;;;;;;333.93;314.27;;;14.60;99.90;;;;;;5048457;28;20172;-87
2021/09/19 04:43:49;;;;;;;338.13;318.33;;;14.60;99.90;;;;;;5065884;28;20169;-87
2021/09/19 04:46:14;;;;;;;264.97;247.67;;;14.50;99.90;;;;;;5065649;28;20165;-87
2021/09/19 04:48:40;;;;;;;361.70;341.23;;;14.50;99.90;;;;;;5066421;28;20656;-87
2021/09/19 04:51:09;;;;;;;262.47;244.77;;;14.50;99.90;;;;;;5065919;28;20176;-87
2021/09/19 04:53:35;;;;;;;273.87;255.83;;;14.40;99.90;;;;;;5065616;28;20168;-87
2021/09/19 04:56:00;;;;;;;231.83;215.00;;;14.40;99.90;;;;;;5047917;28;20427;-87
2021/09/19 04:58:26;;;;;;;240.90;223.17;;;14.40;99.90;;;;;;5065507;28;20813;-87
2021/09/19 05:00:52;;;;;;;249.70;232.93;;;14.40;99.90;;;;;;5065796;28;20532;-87
2021/09/19 05:03:18;;;;;;;382.63;356.53;;;14.40;99.90;;;;;;5048350;28;20168;-88
2021/09/19 05:05:43;;;;;;;253.73;235.77;;;14.50;99.90;;;;;;5065173;28;20157;-87
2021/09/19 05:08:09;;;;;;;266.13;248.70;;;14.40;99.90;;;;;;5065386;28;20192;-87
2021/09/19 05:10:35;;;;;;;236.70;220.80;;;14.40;99.90;;;;;;5065156;28;20168;-88
2021/09/19 05:13:00;;;;;;;305.70;285.43;;;14.30;99.90;;;;;;5065008;28;20192;-87
2021/09/19 05:15:26;;;;;;;300.30;280.73;;;14.40;99.90;;;;;;5047833;28;20176;-87
2021/09/19 05:17:52;;;;;;;295.97;275.80;;;14.30;99.90;;;;;;5065499;28;20188;-87
2021/09/19 05:20:17;;;;;;;423.37;395.80;;;14.30;99.90;;;;;;5063688;28;20167;-87
2021/09/19 05:22:43;;;;;;;256.40;237.53;;;14.40;99.90;;;;;;5046117;28;20224;-87
2021/09/19 05:25:09;;;;;;;271.70;254.00;;;14.40;99.90;;;;;;5064213;28;20165;-87
2021/09/19 05:27:35;;;;;;;271.73;254.00;;;14.30;99.90;;;;;;5064014;28;20224;-86
2021/09/19 05:30:01;;;;;;;283.30;264.50;;;14.30;99.90;;;;;;5063821;28;20415;-87
2021/09/19 05:32:26;;;;;;;402.47;376.23;;;14.20;99.90;;;;;;5046522;28;20241;-87
2021/09/19 05:34:52;;;;;;;500.67;467.30;;;14.20;99.90;;;;;;5065764;28;20905;-87
2021/09/19 05:37:18;;;;;;;395.27;369.80;;;14.20;99.90;;;;;;5046514;28;20193;-87
2021/09/19 05:39:43;;;;;;;454.00;424.50;;;14.20;99.90;;;;;;5065207;28;20168;-87
2021/09/19 05:42:09;;;;;;;543.47;508.20;;;14.20;99.90;;;;;;5064371;28;20663;-87
2021/09/19 05:44:35;;;;;;;413.53;387.13;;;14.30;99.90;;;;;;5046720;28;20173;-87
2021/09/19 05:47:01;;;;;;;484.00;453.33;;;14.30;99.90;;;;;;5045942;28;20435;-87
2021/09/19 05:49:26;;;;;;;415.60;388.63;;;14.50;99.90;;;;;;5063649;28;20173;-87
2021/09/19 05:51:52;;;;;;;504.47;471.40;;;14.40;99.90;;;;;;5046598;28;20192;-87
2021/09/19 05:54:18;;;;;;;365.17;341.70;;;14.50;99.90;;;;;;5064255;28;20176;-87
2021/09/19 05:56:43;;;;;;;271.70;253.40;;;14.60;99.90;;;;;;5042245;28;20196;-87
2021/09/19 05:59:09;;;;;;;285.33;265.93;;;14.60;99.90;;;;;;5046900;28;20548;-87
2021/09/19 06:01:37;;;;;;;351.53;328.73;;;14.50;99.90;;;;;;5064142;28;20169;-87
2021/09/19 06:04:03;;;;;;;372.53;348.43;;;14.60;99.90;;;;;;5064183;28;20180;-86
2021/09/19 06:06:29;;;;;;;368.80;344.17;;;14.50;99.90;;;;;;5063012;28;20461;-87
2021/09/19 06:08:55;;;;;;;418.43;391.40;;;14.50;99.90;;;;;;5045243;28;20168;-86
2021/09/19 06:11:20;;;;;;;387.70;362.73;;;14.40;99.90;;;;;;5063851;28;20168;-87
2021/09/19 06:13:46;;;;;;;467.90;438.13;;;14.40;99.90;;;;;;5063833;28;20171;-86
2021/09/19 06:16:12;;;;;;;516.23;482.33;;;14.40;99.90;;;;;;5045744;28;20217;-86
2021/09/19 06:18:37;;;;;;;529.87;496.07;;;14.50;99.90;;;;;;5046211;28;20165;-87
2021/09/19 06:21:04;;;;;;;553.37;519.07;;;14.40;99.90;;;;;;5045883;28;20164;-86
2021/09/19 06:23:30;;;;;;;565.43;529.90;;;14.40;99.90;;;;;;5063347;28;20188;-87
2021/09/19 06:25:56;;;;;;;572.00;535.77;;;14.40;99.90;;;;;;5060575;28;20399;-86
2021/09/19 06:28:22;;;;;;;605.40;566.43;;;14.40;99.90;;;;;;5042963;28;20446;-86
2021/09/19 06:30:48;;;;;;;584.57;547.77;;;14.40;99.90;;;;;;5043044;28;20427;-85
2021/09/19 06:33:14;;;;;;;581.20;544.27;;;14.40;99.90;;;;;;5059821;28;20469;-86
2021/09/19 06:35:41;;;;;;;603.03;563.43;;;14.50;99.90;;;;;;5040699;28;20175;-86
2021/09/19 06:38:07;;;;;;;606.57;566.83;;;14.50;99.90;;;;;;5042250;28;20184;-86
2021/09/19 06:40:33;;;;;;;585.50;548.33;;;14.60;99.90;;;;;;5060072;28;20409;-86
2021/09/19 06:42:59;;;;;;;567.07;530.27;;;14.60;99.90;;;;;;5041887;28;20439;-86
2021/09/19 06:45:24;;;;;;;579.83;542.93;;;14.70;99.90;;;;;;5042272;28;20169;-86
2021/09/19 06:47:50;;;;;;;529.93;495.73;;;14.70;99.90;;;;;;5042928;28;20663;-86
2021/09/19 06:50:16;;;;;;;574.77;537.63;;;14.80;99.90;;;;;;5040480;28;20204;-86
2021/09/19 06:52:41;;;;;;;577.40;540.67;;;14.80;99.90;;;;;;5060546;28;20184;-85
2021/09/19 06:55:08;;;;;;;520.80;487.60;;;14.80;99.90;;;;;;5042941;28;20184;-86
2021/09/19 06:57:34;;;;;;;559.93;524.27;;;14.90;99.90;;;;;;5043613;28;20510;-86
2021/09/19 07:00:00;;;;;;;553.97;518.10;;;14.90;99.90;;;;;;5043960;28;20399;-86
2021/09/19 07:02:26;;;;;;;540.77;506.50;;;15.00;99.90;;;;;;5061806;28;20585;-86
2021/09/19 07:04:51;;;;;;;503.33;470.50;;;15.00;99.90;;;;;;5060736;28;20168;-87
2021/09/19 07:07:18;;;;;;;479.57;448.87;;;15.10;99.90;;;;;;5058286;28;20204;-86
2021/09/19 07:09:44;;;;;;;411.80;385.20;;;15.20;99.90;;;;;;5043675;28;20168;-86
2021/09/19 07:12:10;;;;;;;438.33;410.17;;;15.30;99.90;;;;;;5060918;28;20439;-87
2021/09/19 07:14:36;;;;;;;390.33;365.10;;;15.30;99.90;;;;;;5043100;28;20462;-87
2021/09/19 07:17:02;;;;;;;427.50;400.40;;;15.40;99.90;;;;;;5061900;28;20185;-87
2021/09/19 07:19:27;;;;;;;397.47;372.57;;;15.40;99.90;;;;;;5041116;28;20195;-87
2021/09/19 07:21:53;;;;;;;372.50;349.03;;;15.50;99.90;;;;;;5058855;28;20409;-87
2021/09/19 07:24:19;;;;;;;355.57;332.53;;;15.50;99.90;;;;;;5061592;28;20197;-87
2021/09/19 07:26:45;;;;;;;338.00;316.40;;;15.50;99.90;;;;;;5044725;28;20462;-87
2021/09/19 07:29:10;;;;;;;338.53;316.37;;;15.50;99.90;;;;;;5061771;28;20664;-87
2021/09/19 07:31:36;;;;;;;298.73;279.33;;;15.60;99.90;;;;;;5044284;28;20199;-87
2021/09/19 07:34:03;;;;;;;260.50;243.17;;;15.70;99.90;;;;;;5044033;28;20403;-87
2021/09/19 07:36:33;;;;;;;262.67;245.33;;;15.70;99.90;;;;;;5044387;28;20187;-87
2021/09/19 07:39:04;;;;;;;223.73;208.33;;;15.80;99.90;;;;;;5047021;28;20467;-86
2021/09/19 07:41:30;;;;;;;235.67;219.33;;;15.80;99.90;;;;;;5064999;28;20383;-86
2021/09/19 07:43:56;;;;;;;235.10;219.30;;;15.80;99.90;;;;;;5045791;28;20408;-87
2021/09/19 07:46:22;;;;;;;246.60;230.03;;;15.90;99.90;;;;;;5063513;28;20461;-87
2021/09/19 07:48:50;;;;;;;278.80;260.70;;;15.80;99.90;;;;;;5062867;28;20439;-87
2021/09/19 07:51:16;;;;;;;284.17;266.07;;;15.80;99.90;;;;;;5065856;28;20414;-87
2021/09/19 07:53:45;;;;;;;245.83;229.23;;;15.90;99.90;;;;;;5065324;28;20420;-87
2021/09/19 07:56:10;;;;;;;292.87;274.97;;;16.00;99.90;;;;;;5047344;28;20431;-86
2021/09/19 07:58:36;;;;;;;275.77;258.03;;;16.00;99.90;;;;;;5061545;28;20413;-86
2021/09/19 08:01:02;;;;;;;326.20;307.30;;;16.00;99.90;;;;;;5065633;28;20532;-87
2021/09/19 08:03:28;;;;;;;321.20;302.60;;;16.10;99.90;;;;;;5047380;28;20170;-87
2021/09/19 08:05:53;;;;;;;290.73;273.10;;;16.10;99.90;;;;;;5065318;28;20170;-86
2021/09/19 08:08:19;;;;;;;282.40;264.93;;;16.10;99.90;;;;;;5066887;28;20189;-87
2021/09/19 08:10:45;;;;;;;266.13;249.40;;;16.10;99.90;;;;;;5069201;28;20224;-86
2021/09/19 08:13:10;;;;;;;332.23;313.00;;;16.10;99.90;;;;;;5050781;28;20220;-87
2021/09/19 08:15:36;;;;;;;287.93;270.13;;;16.20;99.90;;;;;;5051525;28;20197;-87
2021/09/19 08:18:02;;;;;;;316.43;297.83;;;16.10;99.90;;;;;;5068916;28;20187;-86
2021/09/19 08:20:30;;;;;;;294.33;276.63;;;16.20;99.90;;;;;;5065661;28;20167;-87
2021/09/19 08:22:56;;;;;;;312.13;293.87;;;16.20;99.90;;;;;;5047053;28;20681;-87
2021/09/19 08:25:22;;;;;;;342.53;323.00;;;16.30;99.90;;;;;;5065807;28;21009;-87
2021/09/19 08:27:48;;;;;;;311.73;293.33;;;16.40;99.90;;;;;;5065864;28;20460;-87
2021/09/19 08:30:14;;;;;;;368.73;348.70;;;16.40;99.90;;;;;;5068509;28;20220;-87
2021/09/19 08:32:41;;;;;;;322.40;303.77;;;16.50;99.90;;;;;;5069501;28;20452;-86
2021/09/19 08:35:09;;;;;;;348.27;327.97;;;16.50;99.90;;;;;;5066859;28;20411;-86
2021/09/19 08:37:35;;;;;;;375.53;355.30;;;16.60;99.90;;;;;;5051176;28;20432;-87
2021/09/19 08:40:01;;;;;;;382.13;361.23;;;16.60;99.90;;;;;;5051245;28;20437;-86
2021/09/19 08:42:27;;;;;;;361.60;341.60;;;16.60;99.90;;;;;;5066063;28;20584;-86
2021/09/19 08:44:53;;;;;;;355.80;335.80;;;16.70;99.90;;;;;;5066420;28;20173;-87
2021/09/19 08:47:20;;;;;;;386.37;365.53;;;16.70;99.90;;;;;;5067665;28;20933;-87
2021/09/19 08:49:46;;;;;;;389.93;368.50;;;16.80;99.90;;;;;;5069577;28;20415;-87
2021/09/19 08:52:13;;;;;;;340.07;320.50;;;16.80;99.90;;;;;;5050307;28;20448;-87
2021/09/19 08:54:40;;;;;;;373.27;351.97;;;16.90;99.90;;;;;;5049406;28;20421;-87
2021/09/19 08:57:05;;;;;;;325.97;306.40;;;16.90;99.90;;;;;;5053641;28;20431;-86
2021/09/19 08:59:49;;;;;;;321.47;301.90;;;16.90;99.90;;;;;;5070177;28;20918;-87
2021/09/19 09:02:16;;;;;;;360.30;338.90;;;16.90;99.90;;;;;;5070297;28;20680;-87
2021/09/19 09:04:43;;;;;;;264.03;246.47;;;17.00;99.90;;;;;;5069061;28;20411;-87
2021/09/19 09:07:11;;;;;;;286.67;268.67;;;17.10;99.90;;;;;;5052805;28;20438;-87
2021/09/19 09:09:38;;;;;;;253.40;236.53;;;17.10;99.90;;;;;;5071158;28;20412;-87
2021/09/19 09:12:10;;;;;;;269.40;251.93;;;17.20;99.90;;;;;;5069038;28;20452;-87
2021/09/19 09:14:51;;;;;;;233.07;217.07;;;17.30;99.90;;;;;;5068542;28;20379;-87
2021/09/19 09:17:22;;;;;;;224.53;208.63;;;17.40;99.90;;;;;;5067764;28;20520;-87
2021/09/19 09:19:50;;;;;;;195.90;180.90;;;17.50;99.90;;;;;;5066641;28;20387;-88
2021/09/19 09:22:30;;;;;;;208.53;192.57;;;17.50;99.90;;;;;;5048351;28;20424;-87
2021/09/19 09:25:19;;;;;;;192.10;177.37;;;17.60;99.90;;;;;;5066452;28;20391;-87
2021/09/19 09:27:50;;;;;;;162.07;148.13;;;17.70;99.90;;;;;;5065611;28;20428;-87
2021/09/19 09:30:21;;;;;;;144.83;131.57;;;17.80;99.90;;;;;;5064288;28;20566;-87
2021/09/19 09:32:53;;;;;;;96.43;85.93;;;17.90;99.90;;;;;;5067520;28;20533;-87
2021/09/19 09:35:19;;;;;;;122.43;110.80;;;18.00;99.90;;;;;;5066387;28;20414;-87
2021/09/19 09:37:45;;;;;;;135.03;122.83;;;18.10;99.90;;;;;;5065307;28;20426;-87
2021/09/19 09:40:17;;;;;;;87.57;64.60;;;18.30;99.90;;;;;;5046471;28;20797;-87
2021/09/19 09:43:06;;;;;;;79.77;43.57;;;18.40;99.90;;;;;;5045265;28;20168;-87
2021/09/19 09:45:32;;;;;;;82.10;45.33;;;18.50;99.90;;;;;;5047065;28;20439;-87
2021/09/19 09:47:58;;;;;;;85.00;54.00;;;18.60;99.90;;;;;;5046122;28;20427;-88
2021/09/19 09:50:28;;;;;;;165.67;152.13;;;18.60;99.90;;;;;;5064746;28;20445;-87
2021/09/19 09:53:12;;;;;;;113.90;102.10;;;18.50;99.90;;;;;;5063904;28;20447;-87
2021/09/19 09:55:45;;;;;;;187.30;173.17;;;18.70;99.90;;;;;;5061854;28;20430;-87
2021/09/19 09:58:18;;;;;;;236.07;220.17;;;18.60;99.90;;;;;;5048530;28;20502;-88
2021/09/19 10:00:49;;;;;;;260.70;243.97;;;18.70;99.90;;;;;;5047654;28;20466;-88
2021/09/19 10:03:16;;;;;;;244.90;229.20;;;18.80;99.90;;;;;;5046579;28;20475;-88
2021/09/19 10:05:42;;;;;;;221.77;206.80;;;19.00;99.90;;;;;;5064051;28;20407;-88
2021/09/19 10:08:08;;;;;;;162.23;148.87;;;19.20;99.90;;;;;;5046301;28;20972;-87
2021/09/19 10:10:46;;;;;;;121.53;109.63;;;19.30;99.90;;;;;;5046551;28;20421;-88
2021/09/19 10:13:14;;;;;;;116.17;104.70;;;19.50;99.90;;;;;;5044984;28;20520;-87
2021/09/19 10:15:41;;;;;;;94.93;69.17;;;19.80;99.90;;;;;;5044666;28;20814;-88
2021/09/19 10:18:09;;;;;;;80.20;43.63;;;19.90;99.90;;;;;;5046019;28;20427;-87
2021/09/19 10:20:44;;;;;;;78.67;37.57;;;20.00;99.90;;;;;;5063333;28;20404;-87
2021/09/19 10:23:17;;;;;;;76.27;34.53;;;20.20;99.90;;;;;;5063398;28;20386;-87
2021/09/19 10:25:50;;;;;;;78.87;42.17;;;20.30;99.90;;;;;;5044967;28;20414;-88
2021/09/19 10:28:44;;;;;;;117.13;105.50;;;20.40;97.70;;;;;;5062973;28;20439;-88
2021/09/19 10:31:15;;;;;;;175.20;161.57;;;20.60;96.90;;;;;;5059732;28;20422;-88
2021/09/19 10:34:10;;;;;;;159.17;145.73;;;20.60;98.40;;;;;;5045724;28;20463;-87
2021/09/19 10:36:45;;;;;;;172.57;159.27;;;20.50;98.00;;;;;;5062988;28;20424;-88
2021/09/19 10:39:13;;;;;;;105.03;94.23;;;20.50;99.10;;;;;;5062323;28;20383;-87
2021/09/19 10:42:05;;;;;;;125.83;113.13;;;20.60;94.70;;;;;;5044978;28;20414;-88
2021/09/19 10:44:49;;;;;;;112.33;101.03;;;20.60;96.20;;;;;;5045075;28;20416;-88
2021/09/19 10:47:36;;;;;;;113.23;102.03;;;20.70;93.20;;;;;;5061926;28;20799;-88
2021/09/19 10:50:21;;;;;;;101.60;90.90;;;20.50;94.90;;;;;;5063346;28;20880;-88
2021/09/19 10:53:18;;;;;;;106.70;95.83;;;20.30;95.70;;;;;;5062085;28;20536;-88
2021/09/19 10:55:57;;;;;;;115.10;103.30;;;20.30;95.80;;;;;;5045008;28;20500;-88
2021/09/19 10:58:31;;;;;;;126.87;115.20;;;20.40;97.80;;;;;;5062301;28;20382;-87
2021/09/19 11:01:17;;;;;;;156.57;143.90;;;20.70;98.00;;;;;;5063209;28;20413;-88
2021/09/19 11:04:08;;;;;;;136.80;124.77;;;20.40;95.80;;;;;;5063038;28;20393;-88
2021/09/19 11:06:35;;;;;;;194.50;179.97;;;20.30;97.00;;;;;;5043289;28;20432;-87
2021/09/19 11:09:27;;;;;;;102.30;91.40;;;20.50;99.80;;;;;;5044650;28;20503;-87
2021/09/19 11:12:14;;;;;;;149.23;136.47;;;20.80;94.40;;;;;;5043356;28;20459;-87
2021/09/19 11:15:02;;;;;;;164.20;151.20;;;20.80;90.20;;;;;;5060514;28;20434;-88
2021/09/19 11:17:31;;;;;;;162.90;149.93;;;20.70;93.10;;;;;;5043304;28;20424;-88
2021/09/19 11:20:12;;;;;;;135.30;123.23;;;20.70;95.40;;;;;;5062589;28;20405;-88
2021/09/19 11:22:49;;;;;;;166.53;153.53;;;20.60;86.20;;;;;;5062007;28;20409;-88
2021/09/19 11:25:17;;;;;;;154.43;141.80;;;20.40;93.70;;;;;;5062210;28;20895;-88
2021/09/19 11:27:46;;;;;;;164.20;151.23;;;20.20;93.40;;;;;;5062239;28;20423;-87
2021/09/19 11:30:14;;;;;;;147.80;135.30;;;20.30;93.60;;;;;;5062640;28;20401;-87
2021/09/19 11:32:40;;;;;;;161.90;149.03;;;20.30;93.10;;;;;;5061776;28;20451;-88
2021/09/19 11:35:08;;;;;;;167.50;154.33;;;20.20;93.20;;;;;;5062106;28;20583;-88
2021/09/19 11:37:35;;;;;;;170.50;157.33;;;20.30;93.60;;;;;;5061957;28;20177;-87
2021/09/19 11:40:01;;;;;;;144.73;132.47;;;20.40;94.60;;;;;;5062508;28;20432;-89
2021/09/19 11:42:31;;;;;;;156.90;144.17;;;20.40;92.80;;;;;;5065411;28;20412;-88
2021/09/19 11:44:57;;;;;;;130.13;118.30;;;20.70;92.00;;;;;;5047778;28;20170;-88
2021/09/19 11:47:24;;;;;;;255.03;238.10;;;20.80;85.30;;;;;;5065401;28;20860;-88
2021/09/19 11:49:53;;;;;;;119.60;108.27;;;20.80;79.80;;;;;;5065490;28;20539;-88
2021/09/19 11:52:20;;;;;;;129.80;117.93;;;20.60;86.20;;;;;;5065039;28;20471;-88
2021/09/19 11:54:46;;;;;;;149.03;136.73;;;20.40;84.40;;;;;;5064920;28;20421;-88
2021/09/19 11:57:14;;;;;;;131.20;119.60;;;20.10;91.50;;;;;;5067034;28;20419;-88
2021/09/19 11:59:45;;;;;;;142.20;130.03;;;20.00;93.50;;;;;;5047029;28;20916;-88
2021/09/19 12:02:13;;;;;;;161.97;149.20;;;20.10;92.90;;;;;;5045608;28;20402;-87
2021/09/19 12:04:42;;;;;;;160.63;147.87;;;20.30;93.40;;;;;;5061191;28;20493;-88
2021/09/19 12:07:14;;;;;;;145.07;132.80;;;20.30;92.40;;;;;;5024328;28;20439;-88
2021/09/19 12:09:51;;;;;;;109.33;98.43;;;20.30;92.80;;;;;;5059707;28;20438;-88
2021/09/19 12:12:17;;;;;;;90.90;75.90;;;20.20;94.20;;;;;;5060356;28;20441;-88